createdAt,value
2023-05-29T00:02:02.208Z,4.00
2023-05-29T00:07:07.606Z,4.60
2023-05-29T00:13:27.835Z,4.50
2023-05-29T00:23:30.413Z,4.60
2023-05-29T00:27:50.606Z,4.20
2023-05-29T00:29:23.541Z,4.90
2023-05-29T00:30:52.473Z,4.40
2023-05-29T00:33:31.689Z,4.20
2023-05-29T00:35:42.553Z,4.40
2023-05-29T00:39:18.240Z,4.30
2023-05-29T00:41:06.961Z,3.60
2023-05-29T00:43:14.090Z,4.60
2023-05-29T00:44:44.489Z,4.20
2023-05-29T00:47:25.867Z,4.90
2023-05-29T00:55:17.302Z,4.30
2023-05-29T00:57:08.007Z,4.00
2023-05-29T00:58:37.345Z,4.60
2023-05-29T01:00:09.166Z,4.20
2023-05-29T01:02:47.338Z,3.80
2023-05-29T01:05:09.176Z,4.10
2023-05-29T01:07:30.272Z,4.40
2023-05-29T01:11:35.869Z,4.30
2023-05-29T01:13:05.734Z,5.40
2023-05-29T01:14:36.448Z,4.40
2023-05-29T01:16:44.027Z,4.40
2023-05-29T01:19:09.703Z,4.40
2023-05-29T01:20:41.928Z,5.70
2023-05-29T01:26:09.335Z,4.50
2023-05-29T01:31:40.447Z,5.10
2023-05-29T01:38:52.720Z,4.40
2023-05-29T01:42:10.794Z,4.50
2023-05-29T01:44:11.983Z,3.90
2023-05-29T01:47:20.833Z,4.90
2023-05-29T01:53:01.916Z,4.40
2023-05-29T01:55:04.093Z,4.50
2023-05-29T02:00:53.406Z,4.50
2023-05-29T02:02:24.788Z,5.50
2023-05-29T02:03:54.927Z,4.40
2023-05-29T02:06:11.438Z,3.40
2023-05-29T02:08:05.174Z,5.20
2023-05-29T02:12:47.281Z,5.00
2023-05-29T02:14:54.693Z,4.70
2023-05-29T02:21:28.512Z,5.30
2023-05-29T02:23:20.417Z,4.20
2023-05-29T02:24:53.712Z,4.20
2023-05-29T02:28:28.595Z,4.70
2023-05-29T02:30:28.406Z,4.00
2023-05-29T02:32:26.253Z,4.20
2023-05-29T02:35:14.180Z,4.80
2023-05-29T02:37:02.787Z,4.50
2023-05-29T02:40:51.133Z,4.80
2023-05-29T02:44:16.953Z,4.40
2023-05-29T02:47:41.476Z,4.00
2023-05-29T02:50:23.676Z,4.10
2023-05-29T02:53:51.467Z,4.10
2023-05-29T02:56:12.541Z,4.80
2023-05-29T02:57:42.974Z,4.10
2023-05-29T02:59:46.910Z,3.90
2023-05-29T03:01:13.989Z,5.50
2023-05-29T03:02:42.939Z,4.80
2023-05-29T03:07:49.001Z,4.60
2023-05-29T03:09:17.254Z,4.70
2023-05-29T03:12:20.450Z,5.00
2023-05-29T03:13:53.378Z,4.50
2023-05-29T03:17:03.869Z,5.10
2023-05-29T03:18:32.900Z,4.70
2023-05-29T03:20:02.937Z,5.40
2023-05-29T03:21:32.453Z,5.10
2023-05-29T03:23:33.850Z,4.40
2023-05-29T03:28:03.351Z,4.40
2023-05-29T03:30:06.213Z,4.50
2023-05-29T03:33:29.604Z,5.30
2023-05-29T03:35:03.344Z,4.70
2023-05-29T03:39:02.848Z,4.20
2023-05-29T03:40:43.911Z,4.30
2023-05-29T03:43:33.034Z,4.30
2023-05-29T03:46:12.247Z,4.50
2023-05-29T03:51:07.782Z,4.30
2023-05-29T03:55:27.615Z,4.80
2023-05-29T03:57:17.634Z,5.40
2023-05-29T03:59:34.091Z,4.80
2023-05-29T04:03:12.869Z,4.60
2023-05-29T04:07:01.341Z,4.00
2023-05-29T04:10:59.677Z,5.60
2023-05-29T04:14:29.370Z,4.30
2023-05-29T04:17:17.872Z,4.40
2023-05-29T04:18:51.371Z,4.30
2023-05-29T04:20:50.625Z,5.00
2023-05-29T04:22:40.106Z,4.80
2023-05-29T04:24:10.503Z,5.20
2023-05-29T04:25:17.281Z,5.20
2023-05-29T04:30:41.553Z,5.40
2023-05-29T04:33:10.663Z,3.70
2023-05-29T04:36:01.281Z,3.60
2023-05-29T04:37:29.552Z,5.20
2023-05-29T04:41:32.556Z,3.70
2023-05-29T04:44:33.680Z,4.30
2023-05-29T04:48:00.899Z,4.10
2023-05-29T04:53:29.191Z,4.80
2023-05-29T04:56:08.646Z,4.40
2023-05-29T05:00:12.841Z,4.40
2023-05-29T05:03:54.364Z,4.80
2023-05-29T05:08:08.680Z,3.50
2023-05-29T05:10:38.030Z,4.50
2023-05-29T05:13:39.597Z,5.00
2023-05-29T05:15:09.188Z,4.50
2023-05-29T05:16:40.126Z,4.20
2023-05-29T05:18:42.109Z,4.10
2023-05-29T05:22:45.511Z,4.50
2023-05-29T05:24:35.377Z,3.90
2023-05-29T05:28:21.689Z,3.80
2023-05-29T05:30:14.145Z,3.80
2023-05-29T05:31:43.786Z,5.00
2023-05-29T05:34:02.731Z,4.00
2023-05-29T05:36:55.831Z,4.50
2023-05-29T05:39:39.315Z,4.40
2023-05-29T05:41:57.693Z,5.90
2023-05-29T05:45:09.156Z,3.60
2023-05-29T05:51:07.428Z,3.80
2023-05-29T05:52:44.847Z,4.10
2023-05-29T06:00:33.434Z,4.20
2023-05-29T06:02:09.442Z,3.70
2023-05-29T06:05:28.186Z,4.20
2023-05-29T06:08:01.133Z,3.50
2023-05-29T06:12:56.274Z,4.00
2023-05-29T06:20:14.388Z,3.50
2023-05-29T06:24:23.968Z,3.50
2023-05-29T06:26:46.595Z,3.50
2023-05-29T06:30:28.113Z,5.30
2023-05-29T06:32:57.592Z,3.50
2023-05-29T06:37:23.711Z,3.90
2023-05-29T06:38:51.778Z,4.10
2023-05-29T06:40:41.061Z,4.00
2023-05-29T06:42:30.341Z,4.20
2023-05-29T06:46:45.858Z,3.40
2023-05-29T06:50:07.182Z,3.70
2023-05-29T06:53:06.970Z,3.80
2023-05-29T06:56:44.592Z,3.60
2023-05-29T07:00:06.648Z,3.20
2023-05-29T07:02:38.784Z,3.50
2023-05-29T07:06:15.019Z,3.70
2023-05-29T07:10:01.860Z,3.80
2023-05-29T07:16:25.747Z,3.30
2023-05-29T07:17:55.188Z,3.90
2023-05-29T07:19:24.640Z,3.70
2023-05-29T07:22:40.388Z,4.30
2023-05-29T07:24:34.364Z,3.10
2023-05-29T07:26:56.685Z,4.20
2023-05-29T07:27:35.615Z,3.50
2023-05-29T07:28:35.919Z,3.30
2023-05-29T07:32:35.859Z,4.10
2023-05-29T07:35:41.750Z,3.90
2023-05-29T07:38:46.878Z,4.80
2023-05-29T07:43:22.500Z,3.40
2023-05-29T07:49:25.699Z,3.30
2023-05-29T07:50:53.428Z,3.50
2023-05-29T07:53:16.121Z,3.10
2023-05-29T07:55:03.465Z,3.70
2023-05-29T07:57:03.623Z,3.10
2023-05-29T07:58:52.614Z,3.60
2023-05-29T08:00:44.190Z,3.60
2023-05-29T08:02:33.436Z,3.50
2023-05-29T08:04:35.897Z,3.60
2023-05-29T08:06:05.262Z,4.50
2023-05-29T08:07:41.126Z,3.20
2023-05-29T08:12:02.016Z,3.40
2023-05-29T08:19:12.916Z,3.60
2023-05-29T08:20:43.198Z,3.00
2023-05-29T08:23:23.039Z,3.20
2023-05-29T08:25:52.035Z,2.60
2023-05-29T08:28:28.473Z,2.80
2023-05-29T08:33:14.329Z,3.90
2023-05-29T08:36:18.327Z,3.40
2023-05-29T08:39:20.536Z,3.60
2023-05-29T08:42:54.541Z,3.70
2023-05-29T08:45:33.932Z,3.00
2023-05-29T08:47:08.550Z,3.10
2023-05-29T08:48:36.570Z,3.40
2023-05-29T08:52:15.683Z,2.90
2023-05-29T08:54:24.212Z,3.40
2023-05-29T09:01:40.981Z,3.20
2023-05-29T09:03:33.477Z,4.30
2023-05-29T09:13:23.350Z,3.10
2023-05-29T09:14:52.215Z,3.60
2023-05-29T09:18:37.446Z,3.70
2023-05-29T09:28:49.170Z,3.50
2023-05-29T09:30:25.757Z,4.40
2023-05-29T09:32:50.122Z,4.10
2023-05-29T09:37:22.708Z,3.20
2023-05-29T09:41:50.163Z,3.30
2023-05-29T09:44:45.912Z,3.70
2023-05-29T09:47:40.935Z,3.40
2023-05-29T09:49:42.476Z,3.10
2023-05-29T09:52:46.032Z,4.80
2023-05-29T09:55:23.134Z,3.40
2023-05-29T10:00:20.696Z,3.90
2023-05-29T10:04:04.714Z,3.70
2023-05-29T10:08:33.119Z,3.70
2023-05-29T10:10:05.533Z,4.10
2023-05-29T10:13:17.516Z,3.40
2023-05-29T10:15:18.718Z,4.40
2023-05-29T10:18:27.784Z,3.40
2023-05-29T10:20:39.479Z,3.20
2023-05-29T10:21:48.230Z,3.60
2023-05-29T10:24:11.331Z,3.10
2023-05-29T10:32:03.599Z,3.70
2023-05-29T10:33:32.084Z,3.80
2023-05-29T10:35:33.504Z,3.20
2023-05-29T10:37:26.002Z,3.70
2023-05-29T10:40:39.607Z,3.30
2023-05-29T10:42:32.185Z,3.10
2023-05-29T10:44:32.868Z,3.30
2023-05-29T10:48:28.185Z,3.10
2023-05-29T10:50:44.697Z,3.00
2023-05-29T10:53:05.874Z,3.00
2023-05-29T10:59:32.257Z,3.70
2023-05-29T11:04:37.969Z,3.40
2023-05-29T11:07:24.559Z,2.80
2023-05-29T11:08:53.425Z,2.80
2023-05-29T11:13:16.655Z,3.00
2023-05-29T11:15:31.803Z,3.70
2023-05-29T11:21:50.840Z,3.00
2023-05-29T11:23:58.875Z,3.20
2023-05-29T11:26:34.575Z,3.50
2023-05-29T11:31:08.572Z,3.00
2023-05-29T11:36:59.712Z,3.40
2023-05-29T11:38:47.716Z,3.50
2023-05-29T11:41:42.905Z,3.90
2023-05-29T11:48:41.765Z,3.40
2023-05-29T11:52:47.262Z,3.70
2023-05-29T11:55:28.611Z,3.40
2023-05-29T11:57:33.662Z,3.20
2023-05-29T11:59:02.761Z,3.00
2023-05-29T12:00:32.255Z,3.70
2023-05-29T12:03:02.031Z,3.60
2023-05-29T12:05:08.340Z,3.00
2023-05-29T12:07:24.451Z,3.20
2023-05-29T12:10:07.638Z,3.60
2023-05-29T12:14:39.697Z,3.60
2023-05-29T12:16:09.565Z,4.00
2023-05-29T12:19:46.130Z,2.80
2023-05-29T12:23:26.382Z,3.60
2023-05-29T12:26:33.422Z,3.40
2023-05-29T12:28:25.623Z,3.30
2023-05-29T12:30:42.273Z,2.90
2023-05-29T12:33:08.870Z,3.60
2023-05-29T12:37:37.213Z,3.20
2023-05-29T12:43:11.063Z,4.10
2023-05-29T12:47:01.053Z,3.50
2023-05-29T12:52:38.267Z,3.60
2023-05-29T12:54:28.988Z,3.00
2023-05-29T12:57:38.862Z,3.30
2023-05-29T12:59:43.746Z,3.20
2023-05-29T13:02:23.148Z,3.80
2023-05-29T13:04:25.876Z,3.10
2023-05-29T13:09:43.992Z,3.70
2023-05-29T13:15:31.641Z,3.40
2023-05-29T13:16:45.099Z,4.20
2023-05-29T13:20:13.581Z,3.00
2023-05-29T13:22:54.740Z,3.40
2023-05-29T13:24:24.628Z,3.10
2023-05-29T13:28:39.788Z,3.30
2023-05-29T13:36:17.642Z,2.80
2023-05-29T13:38:07.577Z,3.80
2023-05-29T13:46:09.215Z,3.30
2023-05-29T13:51:02.106Z,3.30
2023-05-29T13:52:53.536Z,3.40
2023-05-29T13:57:04.203Z,3.50
2023-05-29T14:00:01.847Z,3.00
2023-05-29T14:05:34.578Z,5.10
2023-05-29T14:08:28.823Z,3.70
2023-05-29T14:12:51.384Z,3.00
2023-05-29T14:17:17.003Z,3.60
2023-05-29T14:19:38.160Z,3.30
2023-05-29T14:21:25.101Z,3.20
2023-05-29T14:28:27.959Z,3.30
2023-05-29T14:31:21.183Z,3.30
2023-05-29T14:32:54.735Z,3.40
2023-05-29T14:34:19.943Z,3.10
2023-05-29T14:37:03.552Z,3.40
2023-05-29T14:38:32.438Z,2.90
2023-05-29T14:42:41.628Z,3.40
2023-05-29T14:44:31.253Z,3.70
2023-05-29T15:00:21.928Z,2.80
2023-05-29T15:03:03.038Z,3.70
2023-05-29T15:06:22.923Z,2.70
2023-05-29T15:10:26.714Z,3.90
2023-05-29T15:14:44.535Z,3.10
2023-05-29T15:17:01.739Z,3.50
2023-05-29T15:18:59.475Z,3.50
2023-05-29T15:28:19.901Z,4.20
2023-05-29T15:42:50.392Z,3.20
2023-05-29T15:46:07.532Z,2.60
2023-05-29T15:47:30.896Z,2.70
2023-05-29T15:49:30.084Z,3.20
2023-05-29T15:52:50.971Z,3.20
2023-05-29T15:56:53.914Z,3.00
2023-05-29T16:00:17.163Z,2.90
2023-05-29T16:03:07.845Z,3.80
2023-05-29T16:07:24.818Z,3.40
2023-05-29T16:13:14.261Z,3.20
2023-05-29T16:19:24.283Z,3.00
2023-05-29T16:21:26.653Z,2.70
2023-05-29T16:32:15.828Z,2.80
2023-05-29T16:33:44.005Z,3.40
2023-05-29T16:38:13.336Z,3.30
2023-05-29T16:43:18.110Z,2.80
2023-05-29T16:50:05.821Z,2.50
2023-05-29T16:54:29.108Z,2.80
2023-05-29T16:57:06.782Z,2.90
2023-05-29T16:58:38.776Z,3.10
2023-05-29T17:00:08.688Z,3.20
2023-05-29T17:02:14.596Z,3.10
2023-05-29T17:05:32.733Z,2.90
2023-05-29T17:08:14.385Z,2.50
2023-05-29T17:11:37.483Z,2.70
2023-05-29T17:15:23.869Z,3.00
2023-05-29T17:23:00.675Z,3.10
2023-05-29T17:24:49.332Z,3.70
2023-05-29T17:26:19.238Z,2.90
2023-05-29T17:27:50.314Z,2.70
2023-05-29T17:34:39.165Z,2.60
2023-05-29T17:36:06.123Z,2.70
2023-05-29T17:38:53.805Z,3.60
2023-05-29T17:40:53.666Z,3.60
2023-05-29T17:42:54.306Z,3.10
2023-05-29T17:44:52.026Z,3.40
2023-05-29T17:50:01.128Z,2.60
2023-05-29T17:51:52.781Z,3.20
2023-05-29T17:55:02.517Z,2.70
2023-05-29T17:56:33.264Z,2.70
2023-05-29T18:00:21.740Z,2.30
2023-05-29T18:06:15.666Z,3.00
2023-05-29T18:08:15.152Z,2.70
2023-05-29T18:15:08.221Z,2.70
2023-05-29T18:17:56.231Z,2.90
2023-05-29T18:20:49.988Z,3.00
2023-05-29T18:22:38.964Z,2.20
2023-05-29T18:24:10.009Z,2.70
2023-05-29T18:26:20.779Z,2.90
2023-05-29T18:27:50.396Z,3.30
2023-05-29T18:30:48.940Z,2.70
2023-05-29T18:31:57.960Z,2.80
2023-05-29T18:33:48.148Z,2.80
2023-05-29T18:39:18.890Z,3.70
2023-05-29T18:41:15.808Z,3.40
2023-05-29T18:45:15.788Z,3.30
2023-05-29T18:50:21.694Z,2.40
2023-05-29T18:52:09.337Z,2.80
2023-05-29T18:54:06.542Z,2.80
2023-05-29T18:56:26.964Z,2.70
2023-05-29T19:01:31.843Z,3.10
2023-05-29T19:03:40.763Z,2.70
2023-05-29T19:05:12.782Z,2.70
2023-05-29T19:06:44.459Z,2.70
2023-05-29T19:13:49.295Z,2.70
2023-05-29T19:16:31.971Z,2.70
2023-05-29T19:18:03.274Z,2.80
2023-05-29T19:24:19.016Z,3.30
2023-05-29T19:34:56.129Z,3.90
2023-05-29T19:36:25.324Z,2.70
2023-05-29T19:38:48.018Z,2.90
2023-05-29T19:43:00.477Z,3.10
2023-05-29T19:47:40.593Z,2.80
2023-05-29T19:49:12.364Z,3.40
2023-05-29T19:50:38.424Z,2.90
2023-05-29T19:51:40.652Z,3.10
2023-05-29T19:52:39.466Z,3.40
2023-05-29T19:56:39.050Z,3.80
2023-05-29T19:57:39.704Z,3.20
2023-05-29T19:58:39.018Z,4.40
2023-05-29T20:07:12.017Z,2.70
2023-05-29T20:10:36.700Z,3.10
2023-05-29T20:12:06.751Z,3.10
2023-05-29T20:14:07.278Z,3.20
2023-05-29T20:20:04.487Z,3.10
2023-05-29T20:32:17.893Z,3.20
2023-05-29T20:34:46.186Z,3.40
2023-05-29T20:36:37.375Z,3.20
2023-05-29T20:40:24.700Z,3.50
2023-05-29T20:43:15.240Z,3.10
2023-05-29T20:49:24.469Z,3.30
2023-05-29T20:55:25.554Z,2.70
2023-05-29T20:59:39.834Z,3.30
2023-05-29T21:01:58.246Z,3.10
2023-05-29T21:06:57.562Z,3.60
2023-05-29T21:08:59.403Z,2.40
2023-05-29T21:13:45.827Z,3.30
2023-05-29T21:20:22.670Z,3.30
2023-05-29T21:25:44.900Z,3.20
2023-05-29T21:27:47.762Z,2.80
2023-05-29T21:29:53.684Z,3.60
2023-05-29T21:31:43.417Z,3.30
2023-05-29T21:36:01.356Z,3.70
2023-05-29T21:39:59.508Z,3.10
2023-05-29T21:45:05.890Z,2.70
2023-05-29T21:49:01.511Z,3.70
2023-05-29T21:51:01.320Z,3.30
2023-05-29T21:55:52.021Z,3.50
2023-05-29T21:57:54.395Z,3.10
2023-05-29T22:01:05.509Z,3.60
2023-05-29T22:03:46.266Z,3.80
2023-05-29T22:05:50.240Z,3.60
2023-05-29T22:19:35.280Z,3.40
2023-05-29T22:21:25.135Z,3.60
2023-05-29T22:25:47.688Z,4.20
2023-05-29T22:27:20.716Z,3.70
2023-05-29T22:32:56.898Z,3.50
2023-05-29T22:34:33.193Z,3.40
2023-05-29T22:36:22.186Z,3.10
2023-05-29T22:42:09.924Z,3.90
2023-05-29T22:45:22.213Z,3.50
2023-05-29T22:59:30.087Z,4.40
2023-05-29T23:04:46.120Z,3.50
2023-05-29T23:08:30.115Z,3.90
2023-05-29T23:11:09.528Z,3.80
2023-05-29T23:15:30.053Z,4.20
2023-05-29T23:17:18.647Z,4.40
2023-05-29T23:20:35.981Z,3.70
2023-05-29T23:21:35.608Z,4.30
2023-05-29T23:22:33.766Z,5.10
2023-05-29T23:26:31.433Z,3.90
2023-05-29T23:29:10.196Z,4.60
2023-05-29T23:31:04.574Z,4.50
2023-05-29T23:34:35.906Z,4.90
2023-05-29T23:41:34.188Z,5.20
2023-05-29T23:46:40.126Z,4.20
2023-05-29T23:49:44.102Z,4.60
2023-05-29T23:52:07.188Z,4.50
2023-05-29T23:56:35.923Z,4.60
2023-05-29T23:58:56.838Z,5.00
